createdAt,value
2023-02-28T00:00:53.204Z,12.15
2023-02-28T00:03:19.733Z,12.73
2023-02-28T00:05:46.535Z,12.45
2023-02-28T00:08:14.115Z,19.63
2023-02-28T00:10:40.623Z,16.60
2023-02-28T00:13:08.164Z,17.70
2023-02-28T00:15:34.729Z,21.00
2023-02-28T00:18:01.358Z,16.83
2023-02-28T00:20:27.909Z,19.10
2023-02-28T00:22:55.017Z,16.27
2023-02-28T00:25:24.515Z,20.85
2023-02-28T00:27:50.985Z,20.40
2023-02-28T00:30:19.901Z,23.85
2023-02-28T00:32:46.432Z,23.73
2023-02-28T00:35:13.482Z,22.83
2023-02-28T00:37:40.081Z,19.42
2023-02-28T00:40:07.832Z,16.20
2023-02-28T00:42:37.325Z,14.75
2023-02-28T00:45:09.056Z,13.13
2023-02-28T00:47:35.859Z,12.75
2023-02-28T00:50:03.112Z,16.08
2023-02-28T00:52:29.644Z,12.35
2023-02-28T00:54:56.258Z,13.95
2023-02-28T00:57:23.181Z,12.13
2023-02-28T00:59:49.704Z,11.70
2023-02-28T01:02:16.494Z,12.00
2023-02-28T01:04:43.076Z,14.07
2023-02-28T01:07:10.197Z,15.20
2023-02-28T01:09:36.640Z,13.52
2023-02-28T01:12:03.210Z,11.15
2023-02-28T01:14:29.733Z,12.15
2023-02-28T01:16:56.116Z,11.98
2023-02-28T01:19:22.560Z,12.07
2023-02-28T01:21:49.016Z,11.93
2023-02-28T01:24:15.647Z,11.63
2023-02-28T01:26:42.342Z,12.02
2023-02-28T01:29:08.842Z,13.45
2023-02-28T01:31:35.708Z,11.18
2023-02-28T01:34:02.603Z,12.10
2023-02-28T01:36:29.149Z,12.05
2023-02-28T01:38:55.579Z,14.50
2023-02-28T01:41:28.899Z,11.88
2023-02-28T01:44:04.076Z,11.55
2023-02-28T01:46:35.952Z,12.30
2023-02-28T01:49:18.763Z,15.02
2023-02-28T01:51:51.819Z,11.88
2023-02-28T01:54:23.557Z,12.05
2023-02-28T01:57:12.968Z,11.52
2023-02-28T01:59:51.053Z,12.50
2023-02-28T02:02:19.774Z,13.95
2023-02-28T02:04:54.523Z,11.93
2023-02-28T02:07:21.391Z,13.60
2023-02-28T02:09:47.863Z,13.38
2023-02-28T02:12:45.144Z,16.88
2023-02-28T02:15:17.086Z,14.63
2023-02-28T02:17:48.584Z,14.73
2023-02-28T02:20:41.096Z,13.95
2023-02-28T02:23:25.537Z,11.77
2023-02-28T02:26:12.977Z,14.18
2023-02-28T02:29:11.154Z,11.80
2023-02-28T02:31:56.355Z,14.98
2023-02-28T02:34:57.962Z,14.20
2023-02-28T02:37:29.868Z,12.60
2023-02-28T02:40:05.365Z,14.20
2023-02-28T02:42:51.827Z,12.57
2023-02-28T02:45:37.300Z,12.23
2023-02-28T02:48:07.549Z,12.57
2023-02-28T02:53:13.490Z,14.82
2023-02-28T02:55:43.952Z,13.63
2023-02-28T02:58:15.761Z,12.10
2023-02-28T03:00:47.630Z,11.73
2023-02-28T03:03:18.714Z,13.68
2023-02-28T03:05:51.935Z,12.45
2023-02-28T03:08:18.964Z,12.77
2023-02-28T03:10:47.661Z,12.27
2023-02-28T03:13:35.677Z,15.13
2023-02-28T03:16:35.581Z,20.92
2023-02-28T03:19:26.689Z,12.90
2023-02-28T03:22:11.190Z,13.18
2023-02-28T03:24:43.716Z,12.27
2023-02-28T03:27:17.516Z,14.52
2023-02-28T03:29:51.736Z,14.35
2023-02-28T03:32:26.606Z,16.25
2023-02-28T03:35:14.726Z,17.23
2023-02-28T03:37:44.875Z,17.55
2023-02-28T03:40:19.049Z,17.73
2023-02-28T03:42:59.886Z,17.48
2023-02-28T03:45:30.849Z,17.27
2023-02-28T03:48:19.096Z,19.38
2023-02-28T03:50:48.915Z,17.42
2023-02-28T03:53:30.068Z,15.88
2023-02-28T03:56:10.429Z,18.67
2023-02-28T03:59:02.234Z,16.20
2023-02-28T04:01:37.652Z,14.23
2023-02-28T04:04:05.212Z,19.02
2023-02-28T04:06:33.445Z,16.17
2023-02-28T04:09:00.820Z,14.65
2023-02-28T04:11:39.065Z,15.25
2023-02-28T04:14:08.337Z,16.92
2023-02-28T04:16:37.543Z,14.73
2023-02-28T04:19:06.298Z,13.80
2023-02-28T04:21:41.796Z,17.00
2023-02-28T04:24:14.965Z,19.35
2023-02-28T04:26:44.570Z,14.38
2023-02-28T04:29:13.374Z,20.02
2023-02-28T04:31:40.430Z,17.10
2023-02-28T04:34:06.911Z,15.65
2023-02-28T04:36:33.722Z,20.33
2023-02-28T04:39:00.120Z,18.80
2023-02-28T04:41:29.635Z,18.08
2023-02-28T04:43:58.508Z,20.13
2023-02-28T04:46:25.152Z,19.27
2023-02-28T04:48:51.640Z,17.15
2023-02-28T04:51:19.651Z,16.10
2023-02-28T04:53:47.026Z,19.77
2023-02-28T04:56:16.759Z,20.83
2023-02-28T04:58:43.896Z,19.17
2023-02-28T05:01:28.990Z,14.82
2023-02-28T05:03:57.685Z,30.30
2023-02-28T05:06:26.621Z,51.70
2023-02-28T05:08:54.055Z,37.72
2023-02-28T05:11:21.995Z,41.45
2023-02-28T05:13:48.933Z,30.83
2023-02-28T05:16:16.325Z,34.28
2023-02-28T05:18:43.076Z,32.42
2023-02-28T05:21:38.985Z,33.15
2023-02-28T05:24:08.866Z,22.67
2023-02-28T05:26:37.377Z,21.98
2023-02-28T05:29:04.032Z,31.15
2023-02-28T05:31:30.831Z,23.52
2023-02-28T05:33:57.682Z,27.00
2023-02-28T05:36:24.670Z,26.40
2023-02-28T05:38:51.976Z,26.73
2023-02-28T05:41:20.854Z,37.08
2023-02-28T05:43:48.157Z,31.05
2023-02-28T05:46:15.005Z,40.47
2023-02-28T05:48:42.787Z,43.78
2023-02-28T05:51:09.793Z,33.72
2023-02-28T05:53:36.802Z,35.35
2023-02-28T05:56:04.123Z,36.85
2023-02-28T05:58:31.991Z,35.58
2023-02-28T06:01:00.170Z,45.97
2023-02-28T06:03:27.608Z,34.38
2023-02-28T06:05:54.442Z,31.85
2023-02-28T06:08:21.239Z,31.40
2023-02-28T06:10:47.722Z,35.35
2023-02-28T06:13:14.229Z,34.63
2023-02-28T06:15:40.743Z,39.65
2023-02-28T06:18:07.906Z,36.80
2023-02-28T06:20:35.431Z,38.78
2023-02-28T06:23:01.918Z,39.28
2023-02-28T06:25:28.799Z,36.05
2023-02-28T06:27:56.219Z,36.85
2023-02-28T06:30:26.250Z,42.72
2023-02-28T06:32:53.088Z,35.28
2023-02-28T06:35:19.626Z,36.88
2023-02-28T06:37:46.138Z,33.15
2023-02-28T06:40:13.968Z,37.92
2023-02-28T06:42:40.486Z,37.47
2023-02-28T06:45:10.271Z,34.67
2023-02-28T06:47:38.968Z,31.77
2023-02-28T06:50:06.681Z,25.88
2023-02-28T06:52:33.437Z,35.25
2023-02-28T06:55:02.879Z,30.45
2023-02-28T06:57:34.494Z,25.42
2023-02-28T07:00:02.664Z,25.20
2023-02-28T07:02:29.311Z,31.55
2023-02-28T07:04:55.800Z,31.92
2023-02-28T07:07:22.374Z,27.58
2023-02-28T07:09:48.836Z,24.70
2023-02-28T07:12:15.282Z,21.83
2023-02-28T07:14:41.861Z,21.13
2023-02-28T07:17:10.018Z,21.35
2023-02-28T07:19:36.507Z,18.55
2023-02-28T07:22:03.841Z,27.50
2023-02-28T07:24:30.416Z,18.23
2023-02-28T07:26:57.479Z,19.50
2023-02-28T07:29:24.009Z,23.38
2023-02-28T07:31:54.069Z,18.88
2023-02-28T07:36:47.482Z,21.52
2023-02-28T07:39:13.902Z,25.50
2023-02-28T07:41:44.256Z,21.25
2023-02-28T07:44:11.964Z,20.00
2023-02-28T07:46:38.821Z,27.95
2023-02-28T07:49:05.681Z,23.00
2023-02-28T07:51:32.364Z,21.15
2023-02-28T07:53:59.106Z,25.25
2023-02-28T07:56:25.521Z,16.23
2023-02-28T07:58:51.948Z,18.15
2023-02-28T08:01:20.398Z,28.15
2023-02-28T08:03:46.882Z,30.50
2023-02-28T08:06:19.221Z,32.15
2023-02-28T08:08:46.104Z,26.40
2023-02-28T08:11:12.582Z,34.03
2023-02-28T08:13:38.996Z,26.40
2023-02-28T08:16:05.810Z,22.75
2023-02-28T08:18:33.405Z,17.50
2023-02-28T08:21:00.222Z,15.15
2023-02-28T08:23:26.674Z,17.00
2023-02-28T08:25:57.301Z,27.23
2023-02-28T08:28:26.992Z,17.02
2023-02-28T08:30:53.711Z,26.33
2023-02-28T08:33:20.386Z,15.75
2023-02-28T08:35:46.938Z,13.82
2023-02-28T08:38:16.448Z,13.93
2023-02-28T08:40:43.669Z,12.63
2023-02-28T08:43:10.395Z,13.23
2023-02-28T08:45:37.130Z,12.40
2023-02-28T08:48:03.913Z,13.02
2023-02-28T08:50:30.392Z,15.10
2023-02-28T08:52:56.790Z,14.50
2023-02-28T08:55:23.381Z,14.48
2023-02-28T08:57:49.797Z,11.57
2023-02-28T09:00:16.551Z,12.15
2023-02-28T09:02:44.607Z,13.30
2023-02-28T09:05:11.041Z,10.48
2023-02-28T09:07:37.616Z,12.77
2023-02-28T09:10:04.578Z,12.07
2023-02-28T09:12:35.447Z,12.55
2023-02-28T09:15:02.443Z,12.50
2023-02-28T09:17:30.786Z,10.63
2023-02-28T09:19:58.031Z,11.02
2023-02-28T09:22:24.697Z,10.75
2023-02-28T09:24:51.081Z,11.57
2023-02-28T09:27:17.512Z,11.20
2023-02-28T09:29:44.136Z,11.77
2023-02-28T09:32:10.622Z,14.13
2023-02-28T09:34:38.008Z,10.95
2023-02-28T09:37:04.774Z,10.75
2023-02-28T09:39:31.949Z,11.45
2023-02-28T09:41:58.992Z,11.38
2023-02-28T09:44:40.412Z,12.80
2023-02-28T09:47:30.037Z,13.05
2023-02-28T09:49:59.579Z,12.60
2023-02-28T09:52:31.428Z,12.80
2023-02-28T09:55:12.832Z,13.90
2023-02-28T09:57:42.191Z,11.43
2023-02-28T10:00:20.347Z,13.50
2023-02-28T10:03:19.217Z,13.50
2023-02-28T10:06:22.756Z,13.18
2023-02-28T10:09:14.832Z,12.93
2023-02-28T10:11:42.305Z,13.10
2023-02-28T10:14:15.316Z,13.23
2023-02-28T10:16:48.771Z,12.52
2023-02-28T10:19:26.921Z,12.75
2023-02-28T10:22:00.138Z,13.35
2023-02-28T10:24:29.638Z,13.07
2023-02-28T10:27:02.752Z,12.70
2023-02-28T10:29:33.696Z,12.50
2023-02-28T10:32:09.332Z,12.55
2023-02-28T10:34:35.762Z,13.30
2023-02-28T10:37:14.570Z,13.38
2023-02-28T10:39:48.009Z,12.98
2023-02-28T10:42:29.719Z,13.35
2023-02-28T10:45:13.373Z,12.30
2023-02-28T10:47:58.978Z,13.40
2023-02-28T10:50:28.601Z,13.30
2023-02-28T10:52:55.812Z,12.93
2023-02-28T10:55:26.106Z,14.07
2023-02-28T10:57:53.480Z,13.07
2023-02-28T11:00:23.520Z,12.73
2023-02-28T11:02:49.967Z,12.88
2023-02-28T11:05:30.876Z,12.88
2023-02-28T11:08:05.615Z,12.30
2023-02-28T11:10:35.706Z,12.73
2023-02-28T11:15:34.219Z,11.52
2023-02-28T11:18:27.016Z,11.32
2023-02-28T11:20:57.381Z,12.60
2023-02-28T11:23:28.565Z,12.88
2023-02-28T11:25:59.195Z,12.10
2023-02-28T11:28:32.563Z,12.40
2023-02-28T11:31:25.604Z,12.63
2023-02-28T11:33:56.866Z,13.15
2023-02-28T11:36:29.321Z,11.63
2023-02-28T11:39:02.573Z,12.23
2023-02-28T11:41:40.849Z,11.68
2023-02-28T11:44:19.795Z,12.20
2023-02-28T11:47:01.721Z,12.23
2023-02-28T11:49:53.322Z,12.07
2023-02-28T11:52:46.437Z,12.30
2023-02-28T11:55:24.646Z,12.73
2023-02-28T11:57:55.315Z,11.35
2023-02-28T12:00:31.752Z,10.27
2023-02-28T12:03:18.222Z,10.63
2023-02-28T12:05:55.822Z,13.20
2023-02-28T12:08:45.649Z,11.98
2023-02-28T12:11:46.103Z,12.10
2023-02-28T12:14:24.429Z,12.30
2023-02-28T12:17:07.908Z,11.48
2023-02-28T12:19:45.815Z,12.13
2023-02-28T12:22:32.029Z,12.05
2023-02-28T12:25:07.729Z,12.00
2023-02-28T12:27:39.743Z,11.00
2023-02-28T12:30:19.364Z,12.48
2023-02-28T12:32:59.000Z,12.98
2023-02-28T12:35:34.174Z,10.90
2023-02-28T12:38:14.258Z,12.43
2023-02-28T12:41:06.908Z,12.00
2023-02-28T12:43:42.791Z,11.25
2023-02-28T12:46:24.464Z,11.77
2023-02-28T12:48:56.643Z,12.10
2023-02-28T12:51:24.765Z,12.48
2023-02-28T12:54:18.831Z,12.30
2023-02-28T12:56:45.220Z,12.05
2023-02-28T12:59:18.236Z,11.75
2023-02-28T13:02:12.969Z,11.50
2023-02-28T13:05:16.834Z,11.38
2023-02-28T13:08:01.646Z,11.50
2023-02-28T13:10:50.984Z,12.85
2023-02-28T13:13:20.431Z,12.27
2023-02-28T13:16:08.824Z,12.70
2023-02-28T13:18:42.758Z,12.65
2023-02-28T13:21:22.358Z,13.05
2023-02-28T13:24:04.070Z,12.35
2023-02-28T13:26:36.515Z,13.13
2023-02-28T13:29:11.923Z,11.95
2023-02-28T13:32:06.717Z,12.00
2023-02-28T13:34:34.982Z,12.35
2023-02-28T13:37:22.960Z,12.45
2023-02-28T13:40:08.202Z,12.40
2023-02-28T13:42:48.322Z,12.50
2023-02-28T13:45:14.652Z,12.50
2023-02-28T13:47:44.448Z,12.75
2023-02-28T13:50:27.324Z,12.57
2023-02-28T13:53:12.379Z,12.25
2023-02-28T13:56:06.733Z,12.65
2023-02-28T13:58:59.483Z,11.80
2023-02-28T14:01:47.209Z,13.30
2023-02-28T14:04:43.194Z,13.68
2023-02-28T14:07:17.930Z,13.07
2023-02-28T14:09:53.302Z,13.02
2023-02-28T14:12:55.658Z,12.40
2023-02-28T14:15:28.378Z,12.98
2023-02-28T14:17:57.186Z,12.90
2023-02-28T14:20:27.644Z,12.95
2023-02-28T14:23:17.370Z,12.73
2023-02-28T14:25:53.855Z,13.13
2023-02-28T14:28:27.375Z,13.70
2023-02-28T14:31:08.858Z,13.80
2023-02-28T14:33:48.337Z,14.20
2023-02-28T14:36:23.944Z,13.17
2023-02-28T14:38:57.819Z,13.05
2023-02-28T14:41:39.750Z,11.88
2023-02-28T14:44:18.584Z,11.45
2023-02-28T14:46:47.031Z,14.35
2023-02-28T14:49:19.362Z,12.70
2023-02-28T14:51:48.544Z,12.73
2023-02-28T14:54:17.550Z,12.68
2023-02-28T14:56:44.055Z,13.13
2023-02-28T14:59:36.965Z,12.43
2023-02-28T15:02:17.386Z,12.68
2023-02-28T15:04:43.930Z,14.38
2023-02-28T15:07:16.469Z,11.63
2023-02-28T15:09:43.087Z,11.32
2023-02-28T15:12:15.870Z,11.52
2023-02-28T15:14:45.307Z,12.25
2023-02-28T15:17:24.076Z,11.48
2023-02-28T15:19:54.012Z,12.27
2023-02-28T15:22:36.754Z,12.93
2023-02-28T15:25:05.078Z,12.02
2023-02-28T15:27:34.120Z,12.27
2023-02-28T15:30:06.699Z,12.05
2023-02-28T15:32:42.226Z,11.57
2023-02-28T15:35:21.708Z,12.38
2023-02-28T15:37:54.467Z,13.23
2023-02-28T15:40:26.862Z,12.15
2023-02-28T15:43:04.540Z,12.55
2023-02-28T15:45:56.232Z,12.63
2023-02-28T15:48:33.576Z,11.85
2023-02-28T15:51:18.395Z,12.07
2023-02-28T15:53:55.352Z,12.52
2023-02-28T15:56:26.437Z,12.50
2023-02-28T15:58:58.582Z,12.45
2023-02-28T16:01:45.478Z,13.32
2023-02-28T16:04:18.413Z,12.82
2023-02-28T16:07:06.147Z,13.57
2023-02-28T16:09:34.964Z,13.02
2023-02-28T16:12:03.516Z,13.55
2023-02-28T16:14:31.759Z,13.38
2023-02-28T16:17:05.529Z,13.65
2023-02-28T16:19:33.892Z,13.75
2023-02-28T16:22:02.017Z,13.70
2023-02-28T16:24:28.689Z,15.80
2023-02-28T16:26:56.827Z,13.18
2023-02-28T16:29:28.060Z,14.23
2023-02-28T16:31:55.050Z,17.80
2023-02-28T16:34:22.288Z,14.65
2023-02-28T16:36:49.567Z,17.42
2023-02-28T16:39:15.983Z,14.13
2023-02-28T16:41:46.842Z,14.27
2023-02-28T16:44:34.698Z,13.60
2023-02-28T16:47:02.436Z,14.73
2023-02-28T16:49:30.057Z,21.92
2023-02-28T16:51:56.612Z,25.33
2023-02-28T16:54:23.228Z,19.65
2023-02-28T16:56:50.593Z,15.13
2023-02-28T16:59:22.312Z,14.40
2023-02-28T17:01:49.198Z,16.83
2023-02-28T17:04:16.606Z,14.93
2023-02-28T17:06:43.033Z,14.57
2023-02-28T17:09:17.201Z,14.38
2023-02-28T17:11:43.794Z,13.48
2023-02-28T17:14:10.257Z,12.88
2023-02-28T17:16:40.820Z,14.30
2023-02-28T17:19:11.869Z,13.90
2023-02-28T17:21:38.750Z,13.75
2023-02-28T17:24:05.907Z,13.98
2023-02-28T17:26:33.078Z,13.65
2023-02-28T17:28:59.706Z,23.05
2023-02-28T17:31:27.761Z,20.30
2023-02-28T17:33:56.067Z,16.52
2023-02-28T17:36:25.629Z,16.42
2023-02-28T17:38:54.070Z,15.60
2023-02-28T17:41:20.533Z,15.15
2023-02-28T17:43:46.944Z,18.45
2023-02-28T17:46:22.664Z,17.20
2023-02-28T17:48:50.419Z,15.48
2023-02-28T17:51:18.796Z,15.68
2023-02-28T17:53:45.634Z,17.42
2023-02-28T17:56:14.639Z,13.32
2023-02-28T17:58:41.055Z,14.55
2023-02-28T18:01:07.778Z,14.45
2023-02-28T18:03:34.505Z,13.43
2023-02-28T18:06:01.577Z,14.85
2023-02-28T18:08:28.009Z,15.30
2023-02-28T18:10:54.537Z,13.50
2023-02-28T18:13:20.978Z,15.07
2023-02-28T18:15:48.445Z,14.93
2023-02-28T18:18:16.640Z,21.23
2023-02-28T18:20:43.356Z,19.85
2023-02-28T18:23:10.452Z,15.98
2023-02-28T18:25:38.646Z,17.77
2023-02-28T18:28:05.651Z,17.63
2023-02-28T18:30:37.331Z,20.13
2023-02-28T18:33:04.626Z,18.58
2023-02-28T18:35:37.559Z,18.55
2023-02-28T18:38:22.471Z,16.20
2023-02-28T18:41:01.031Z,21.50
2023-02-28T18:43:32.531Z,17.27
2023-02-28T18:46:04.615Z,20.08
2023-02-28T18:48:31.023Z,17.42
2023-02-28T18:50:57.615Z,18.38
2023-02-28T18:53:24.139Z,22.73
2023-02-28T18:55:50.548Z,22.02
2023-02-28T18:58:16.999Z,21.08
2023-02-28T19:00:44.565Z,21.10
2023-02-28T19:03:12.728Z,20.88
2023-02-28T19:05:39.851Z,20.45
2023-02-28T19:08:06.285Z,20.30
2023-02-28T19:10:33.417Z,21.10
2023-02-28T19:12:59.995Z,28.10
2023-02-28T19:15:26.732Z,21.88
2023-02-28T19:17:53.136Z,22.92
2023-02-28T19:20:19.804Z,22.02
2023-02-28T19:22:46.436Z,21.25
2023-02-28T19:25:12.829Z,20.88
2023-02-28T19:27:39.401Z,26.08
2023-02-28T19:30:07.399Z,23.75
2023-02-28T19:32:33.917Z,21.42
2023-02-28T19:35:00.745Z,22.85
2023-02-28T19:37:27.133Z,18.58
2023-02-28T19:39:56.865Z,19.58
2023-02-28T19:42:23.354Z,22.20
2023-02-28T19:44:49.752Z,22.70
2023-02-28T19:47:16.513Z,23.23
2023-02-28T19:49:42.998Z,29.70
2023-02-28T19:52:13.307Z,26.65
2023-02-28T19:54:42.230Z,20.30
2023-02-28T19:57:08.681Z,23.17
2023-02-28T19:59:39.226Z,25.52
2023-02-28T20:02:14.239Z,25.45
2023-02-28T20:04:40.817Z,25.83
2023-02-28T20:07:07.336Z,34.90
2023-02-28T20:09:33.944Z,23.85
2023-02-28T20:12:00.899Z,27.10
2023-02-28T20:14:27.643Z,25.88
2023-02-28T20:16:55.953Z,30.27
2023-02-28T20:19:23.596Z,29.63
2023-02-28T20:21:50.026Z,29.77
2023-02-28T20:24:16.647Z,34.25
2023-02-28T20:26:43.228Z,32.38
2023-02-28T20:29:09.717Z,28.60
2023-02-28T20:31:39.820Z,33.30
2023-02-28T20:34:06.516Z,33.72
2023-02-28T20:36:33.138Z,39.00
2023-02-28T20:39:00.474Z,39.70
2023-02-28T20:41:27.692Z,32.00
2023-02-28T20:43:59.122Z,34.67
2023-02-28T20:46:26.162Z,31.77
2023-02-28T20:48:53.092Z,31.33
2023-02-28T20:51:19.958Z,32.53
2023-02-28T20:53:46.452Z,64.10
2023-02-28T20:56:20.756Z,49.35
2023-02-28T20:58:48.821Z,52.95
2023-02-28T21:01:16.821Z,55.50
2023-02-28T21:03:48.892Z,55.75
2023-02-28T21:06:17.278Z,55.55
2023-02-28T21:08:44.881Z,47.03
2023-02-28T21:11:14.089Z,53.25
2023-02-28T21:13:42.014Z,47.90
2023-02-28T21:16:11.814Z,49.58
2023-02-28T21:18:38.505Z,53.75
2023-02-28T21:21:07.708Z,47.97
2023-02-28T21:23:34.203Z,49.40
2023-02-28T21:26:10.164Z,48.30
2023-02-28T21:28:37.888Z,46.60
2023-02-28T21:31:09.147Z,44.58
2023-02-28T21:33:35.895Z,51.40
2023-02-28T21:36:07.891Z,47.25
2023-02-28T21:38:35.088Z,50.63
2023-02-28T21:41:16.622Z,53.17
2023-02-28T21:43:44.375Z,49.67
2023-02-28T21:46:14.398Z,54.60
2023-02-28T21:48:43.353Z,53.60
2023-02-28T21:51:14.168Z,54.17
2023-02-28T21:53:41.315Z,59.50
2023-02-28T21:56:15.396Z,53.17
2023-02-28T21:58:42.378Z,46.13
2023-02-28T22:01:17.897Z,43.40
2023-02-28T22:03:45.292Z,49.67
2023-02-28T22:06:14.594Z,53.47
2023-02-28T22:08:42.652Z,49.77
2023-02-28T22:11:10.475Z,51.35
2023-02-28T22:13:37.921Z,44.17
2023-02-28T22:16:12.971Z,48.17
2023-02-28T22:18:40.847Z,43.92
2023-02-28T22:21:10.281Z,45.90
2023-02-28T22:23:41.259Z,47.90
2023-02-28T22:26:10.412Z,48.28
2023-02-28T22:28:37.505Z,46.03
2023-02-28T22:31:31.030Z,42.88
2023-02-28T22:34:00.509Z,45.92
2023-02-28T22:36:28.374Z,55.22
2023-02-28T22:38:55.277Z,43.88
2023-02-28T22:41:23.679Z,43.47
2023-02-28T22:43:53.330Z,43.88
2023-02-28T22:46:20.503Z,45.45
2023-02-28T22:48:48.694Z,48.40
2023-02-28T22:51:18.567Z,53.28
2023-02-28T22:53:48.500Z,49.85
2023-02-28T22:56:17.401Z,45.20
2023-02-28T22:58:45.492Z,43.55
2023-02-28T23:01:16.718Z,48.67
2023-02-28T23:03:43.823Z,45.08
2023-02-28T23:06:21.189Z,45.42
2023-02-28T23:08:48.006Z,48.75
2023-02-28T23:11:24.318Z,39.85
2023-02-28T23:14:00.161Z,47.53
2023-02-28T23:16:31.740Z,50.75
2023-02-28T23:19:01.794Z,45.80
2023-02-28T23:21:28.374Z,47.05
2023-02-28T23:23:55.621Z,41.08
2023-02-28T23:26:22.913Z,40.20
2023-02-28T23:28:49.872Z,42.75
2023-02-28T23:31:16.370Z,47.60
2023-02-28T23:33:42.884Z,42.42
2023-02-28T23:36:11.721Z,48.88
2023-02-28T23:38:39.807Z,41.88
2023-02-28T23:41:10.837Z,40.85
2023-02-28T23:43:37.669Z,45.03
2023-02-28T23:46:04.919Z,38.33
2023-02-28T23:48:32.015Z,39.33
2023-02-28T23:51:03.786Z,42.15
2023-02-28T23:53:31.363Z,38.60
2023-02-28T23:55:57.849Z,43.85
2023-02-28T23:58:24.407Z,44.90
